Time;durP1;ratioP1;P1;durP2;ratioP2;P2;SDS_P1;SDS_P2;PMS_P1;PMS_P2;Temp;Humidity;BMP_temperature;BMP_pressure;BME280_temperature;BME280_humidity;BME280_pressure;Samples;Min_cycle;Max_cycle;Signal;HPM_P1;HPM_P2
2023/10/08 00:02:25;;;;;;;827.00;766.45;;;;;;;;;;10471415;28;20024;-75
2023/10/08 00:07:26;;;;;;;859.88;798.55;;;;;;;;;;10484139;28;20055;-80
2023/10/08 00:12:28;;;;;;;854.72;792.30;;;;;;;;;;10486753;28;20111;-79
2023/10/08 00:17:45;;;;;;;863.78;803.45;;;;;;;;;;10468585;28;20112;-75
2023/10/08 00:22:47;;;;;;;831.97;772.45;;;;;;;;;;10477909;28;20028;-75
2023/10/08 00:27:51;;;;;;;849.10;788.40;;;;;;;;;;10454104;28;20160;-78
2023/10/08 00:32:53;;;;;;;838.58;780.72;;;;;;;;;;10467053;28;20669;-83
2023/10/08 00:37:53;;;;;;;806.35;750.63;;;;;;;;;;10465228;28;20037;-82
2023/10/08 00:42:56;;;;;;;835.45;778.42;;;;;;;;;;10461299;28;20439;-76
2023/10/08 00:47:58;;;;;;;786.55;733.17;;;;;;;;;;10487866;28;20028;-77
2023/10/08 00:53:01;;;;;;;786.10;730.80;;;;;;;;;;10472974;28;20108;-77
2023/10/08 00:58:11;;;;;;;820.60;763.85;;;;;;;;;;10469444;28;20017;-76
2023/10/08 01:03:15;;;;;;;839.17;781.00;;;;;;;;;;10510814;28;20017;-81
2023/10/08 01:09:03;;;;;;;845.88;780.60;;;;;;;;;;10475560;28;20061;-78
2023/10/08 01:13:45;;;;;;;815.88;749.75;;;;;;;;;;10476337;28;20548;-82
2023/10/08 01:18:50;;;;;;;815.45;749.15;;;;;;;;;;10481181;28;20151;-80
2023/10/08 01:23:50;;;;;;;829.83;768.50;;;;;;;;;;10470918;28;20035;-75
2023/10/08 01:28:52;;;;;;;840.30;778.73;;;;;;;;;;10486603;28;20025;-83
2023/10/08 01:33:56;;;;;;;813.08;754.10;;;;;;;;;;10468001;28;20052;-75
2023/10/08 01:38:57;;;;;;;801.85;742.75;;;;;;;;;;10492250;28;20076;-78
2023/10/08 01:43:59;;;;;;;804.83;743.60;;;;;;;;;;10459148;28;20556;-83
2023/10/08 01:49:13;;;;;;;796.08;734.40;;;;;;;;;;10487231;28;20032;-79
2023/10/08 01:54:14;;;;;;;798.80;734.22;;;;;;;;;;10484813;28;20044;-76
2023/10/08 01:59:15;;;;;;;803.47;739.60;;;;;;;;;;10482568;28;20420;-75
2023/10/08 02:04:17;;;;;;;788.63;725.92;;;;;;;;;;10462533;28;20028;-78
2023/10/08 02:09:25;;;;;;;795.65;733.08;;;;;;;;;;10462793;28;20036;-76
2023/10/08 02:14:26;;;;;;;824.78;759.47;;;;;;;;;;10499719;28;20063;-76
2023/10/08 02:19:27;;;;;;;840.72;770.70;;;;;;;;;;10485148;28;20504;-84
2023/10/08 02:24:29;;;;;;;821.35;750.55;;;;;;;;;;10476170;28;20104;-79
2023/10/08 02:29:30;;;;;;;814.28;744.63;;;;;;;;;;10488219;28;20048;-84
2023/10/08 02:34:31;;;;;;;784.03;705.90;;;;;;;;;;10484911;28;20113;-75
2023/10/08 02:39:32;;;;;;;823.37;744.53;;;;;;;;;;10485377;28;20541;-80
2023/10/08 02:44:34;;;;;;;849.88;769.05;;;;;;;;;;10486068;28;20492;-80
2023/10/08 02:49:34;;;;;;;822.30;740.78;;;;;;;;;;10484832;28;20120;-76
2023/10/08 02:54:37;;;;;;;803.85;722.80;;;;;;;;;;10482164;28;20097;-81
2023/10/08 02:59:42;;;;;;;833.50;750.72;;;;;;;;;;10483308;28;20423;-75
2023/10/08 03:04:45;;;;;;;815.40;733.55;;;;;;;;;;10486219;28;20017;-76
2023/10/08 03:09:45;;;;;;;800.85;718.38;;;;;;;;;;10486493;28;20032;-77
2023/10/08 03:15:00;;;;;;;797.17;715.83;;;;;;;;;;10487045;28;20047;-76
2023/10/08 03:20:27;;;;;;;805.50;722.35;;;;;;;;;;10485402;28;20480;-76
2023/10/08 03:25:23;;;;;;;805.03;715.75;;;;;;;;;;10488980;28;20408;-74
2023/10/08 03:30:26;;;;;;;826.88;736.42;;;;;;;;;;10485791;28;20025;-75
2023/10/08 03:35:28;;;;;;;813.58;709.58;;;;;;;;;;10485357;28;20040;-78
2023/10/08 03:40:42;;;;;;;805.67;688.72;;;;;;;;;;10460471;28;20033;-78
2023/10/08 03:45:53;;;;;;;821.78;730.67;;;;;;;;;;10464959;28;20020;-82
2023/10/08 03:51:06;;;;;;;792.25;677.22;;;;;;;;;;10483354;28;20017;-76
2023/10/08 03:56:06;;;;;;;784.45;614.72;;;;;;;;;;10485408;28;20071;-75
2023/10/08 04:01:10;;;;;;;849.17;757.17;;;;;;;;;;10474963;28;20104;-79
2023/10/08 04:06:22;;;;;;;794.92;668.05;;;;;;;;;;10455279;28;20534;-81
2023/10/08 04:11:30;;;;;;;811.33;717.55;;;;;;;;;;10482202;28;20020;-78
2023/10/08 04:16:36;;;;;;;813.40;713.28;;;;;;;;;;10483654;28;20068;-82
2023/10/08 04:21:41;;;;;;;705.38;585.90;;;;;;;;;;10482952;28;20039;-77
2023/10/08 04:26:43;;;;;;;737.08;655.67;;;;;;;;;;10484538;28;20348;-80
2023/10/08 04:31:43;;;;;;;792.15;681.25;;;;;;;;;;10482708;28;20074;-76
2023/10/08 04:36:52;;;;;;;811.87;715.67;;;;;;;;;;10489512;28;20059;-78
2023/10/08 04:41:54;;;;;;;800.95;681.30;;;;;;;;;;10493389;28;20147;-83
2023/10/08 04:46:54;;;;;;;813.13;714.17;;;;;;;;;;10490870;28;20035;-78
2023/10/08 04:51:56;;;;;;;812.83;721.20;;;;;;;;;;10491395;28;20348;-82
2023/10/08 04:57:00;;;;;;;802.60;689.67;;;;;;;;;;10494413;28;20425;-84
2023/10/08 05:02:20;;;;;;;804.40;705.90;;;;;;;;;;10468250;28;20020;-82
2023/10/08 05:07:21;;;;;;;809.05;705.70;;;;;;;;;;10490672;28;20013;-82
2023/10/08 05:12:37;;;;;;;804.28;693.90;;;;;;;;;;10467402;28;20025;-81
2023/10/08 05:23:05;;;;;;;821.50;730.53;;;;;;;;;;10468817;28;20033;-82
2023/10/08 05:28:11;;;;;;;805.67;717.83;;;;;;;;;;10490726;28;20351;-82
2023/10/08 05:39:04;;;;;;;816.08;734.35;;;;;;;;;;10505568;28;20127;-84
2023/10/08 05:59:38;;;;;;;824.45;753.35;;;;;;;;;;10465321;28;20024;-87
2023/10/08 06:04:53;;;;;;;323.42;295.80;;;;;;;;;;10464841;28;20056;-85
2023/10/08 06:10:26;;;;;;;908.38;820.95;;;;;;;;;;10472019;28;20099;-83
2023/10/08 06:15:37;;;;;;;862.92;773.08;;;;;;;;;;10464021;28;20027;-81
2023/10/08 06:20:42;;;;;;;886.08;793.22;;;;;;;;;;10474204;28;20054;-83
2023/10/08 06:25:54;;;;;;;913.10;818.90;;;;;;;;;;10462368;28;20121;-81
2023/10/08 06:30:55;;;;;;;899.70;806.20;;;;;;;;;;10477587;28;20107;-79
2023/10/08 06:41:37;;;;;;;966.88;869.97;;;;;;;;;;10445031;28;20457;-71
2023/10/08 06:46:39;;;;;;;977.97;881.00;;;;;;;;;;10444572;28;20059;-68
2023/10/08 06:51:43;;;;;;;992.25;894.38;;;;;;;;;;10442290;28;20044;-67
2023/10/08 06:56:46;;;;;;;989.28;891.97;;;;;;;;;;10440064;28;20043;-70
2023/10/08 07:01:46;;;;;;;1021.97;923.42;;;;;;;;;;10440455;28;20041;-70
2023/10/08 07:06:47;;;;;;;1005.90;908.03;;;;;;;;;;10444932;28;20254;-66
2023/10/08 07:11:49;;;;;;;1026.32;927.67;;;;;;;;;;10444441;28;20017;-67
2023/10/08 07:16:52;;;;;;;1000.97;903.97;;;;;;;;;;10451736;28;20062;-73
2023/10/08 07:21:58;;;;;;;1017.85;920.67;;;;;;;;;;10443652;28;20021;-73
2023/10/08 07:26:58;;;;;;;1022.42;924.65;;;;;;;;;;10442801;28;20071;-72
2023/10/08 07:32:09;;;;;;;1035.80;937.53;;;;;;;;;;10443897;28;20291;-72
2023/10/08 07:37:11;;;;;;;1054.93;955.22;;;;;;;;;;10440654;28;20449;-70
2023/10/08 07:42:11;;;;;;;1052.93;952.67;;;;;;;;;;10444681;28;20017;-70
2023/10/08 07:47:12;;;;;;;1045.20;946.40;;;;;;;;;;10445042;28;20029;-71
2023/10/08 07:52:15;;;;;;;1051.25;951.50;;;;;;;;;;10420432;28;20025;-71
2023/10/08 07:57:25;;;;;;;1040.63;941.95;;;;;;;;;;10416595;28;20037;-71
2023/10/08 08:02:27;;;;;;;1030.32;931.67;;;;;;;;;;10416666;28;20064;-73
2023/10/08 08:07:27;;;;;;;743.70;674.45;;;;;;;;;;10416426;28;20067;-71
2023/10/08 08:12:28;;;;;;;1058.00;957.17;;;;;;;;;;10416285;28;20091;-72
2023/10/08 08:17:30;;;;;;;1074.63;972.72;;;;;;;;;;10416277;28;20021;-70
2023/10/08 08:22:31;;;;;;;1083.50;988.70;;;;;;;;;;10423725;28;20295;-72
2023/10/08 08:27:34;;;;;;;1101.53;996.85;;;;;;;;;;10416479;28;20060;-71
2023/10/08 08:32:34;;;;;;;1151.55;999.90;;;;;;;;;;10415623;28;20025;-73
2023/10/08 08:37:41;;;;;;;1179.68;999.90;;;;;;;;;;10415649;28;20045;-70
2023/10/08 08:42:41;;;;;;;1190.70;999.90;;;;;;;;;;10414500;28;20110;-72
2023/10/08 08:47:41;;;;;;;1169.00;999.90;;;;;;;;;;10415410;28;20056;-72
2023/10/08 08:52:42;;;;;;;1162.93;999.90;;;;;;;;;;10416256;28;20029;-72
2023/10/08 08:57:43;;;;;;;1153.50;999.90;;;;;;;;;;10413503;28;20322;-71
2023/10/08 09:02:44;;;;;;;7.55;3.28;;;;;;;;;;10413489;28;20570;-72
2023/10/08 09:08:04;;;;;;;13.20;2.95;;;;;;;;;;10414170;28;20079;-71
2023/10/08 09:13:07;;;;;;;1118.70;999.90;;;;;;;;;;10412611;28;20017;-71
2023/10/08 09:18:09;;;;;;;1159.82;999.90;;;;;;;;;;10412114;28;20040;-72
2023/10/08 09:23:13;;;;;;;1152.10;999.90;;;;;;;;;;10413445;28;20082;-71
2023/10/08 09:28:13;;;;;;;1136.85;999.90;;;;;;;;;;10414474;28;20030;-71
2023/10/08 09:33:14;;;;;;;1142.25;999.90;;;;;;;;;;10412320;28;20234;-71
2023/10/08 09:38:22;;;;;;;1131.60;999.90;;;;;;;;;;10412618;28;20144;-71
2023/10/08 09:43:22;;;;;;;1152.80;999.90;;;;;;;;;;10418464;28;20085;-70
2023/10/08 09:48:25;;;;;;;1175.50;999.90;;;;;;;;;;10413266;28;20021;-71
2023/10/08 09:53:31;;;;;;;1209.07;999.90;;;;;;;;;;10411184;28;20111;-71
2023/10/08 09:58:32;;;;;;;1196.40;999.90;;;;;;;;;;10410232;28;20053;-72
2023/10/08 10:03:36;;;;;;;1199.22;999.90;;;;;;;;;;10413311;28;20227;-70
2023/10/08 10:08:36;;;;;;;1212.63;999.90;;;;;;;;;;10411519;28;20026;-71
2023/10/08 10:13:41;;;;;;;1208.07;999.90;;;;;;;;;;10410714;28;20115;-70
2023/10/08 10:18:44;;;;;;;1199.82;999.90;;;;;;;;;;10411716;28;20365;-70
2023/10/08 10:23:45;;;;;;;1211.45;999.90;;;;;;;;;;10414985;28;20313;-71
2023/10/08 10:29:05;;;;;;;1203.25;999.90;;;;;;;;;;10411416;28;20096;-70
2023/10/08 10:34:08;;;;;;;1206.28;999.90;;;;;;;;;;10409249;28;20187;-70
2023/10/08 10:44:39;;;;;;;1215.15;999.90;;;;;;;;;;10406955;28;20056;-70
2023/10/08 10:54:58;;;;;;;1240.82;999.90;;;;;;;;;;10410800;28;20325;-70
2023/10/08 11:00:18;;;;;;;1245.30;999.90;;;;;;;;;;10411754;28;20315;-70
2023/10/08 11:05:28;;;;;;;1272.20;999.90;;;;;;;;;;10410758;28;20079;-70
2023/10/08 11:10:30;;;;;;;1259.78;999.90;;;;;;;;;;10409886;28;20021;-70
2023/10/08 11:15:37;;;;;;;1276.05;999.90;;;;;;;;;;10410955;28;20329;-70
2023/10/08 11:20:39;;;;;;;1261.28;999.90;;;;;;;;;;10421201;28;20017;-71
2023/10/08 11:25:43;;;;;;;1240.55;999.90;;;;;;;;;;10414357;28;20418;-72
2023/10/08 11:30:46;;;;;;;1246.03;999.90;;;;;;;;;;10417193;28;20021;-71
2023/10/08 11:36:06;;;;;;;1225.95;999.90;;;;;;;;;;10418178;28;20036;-70
2023/10/08 11:41:27;;;;;;;1203.32;999.90;;;;;;;;;;10406433;28;20037;-70
2023/10/08 11:46:38;;;;;;;1189.18;999.90;;;;;;;;;;10417874;28;20188;-70
2023/10/08 11:51:40;;;;;;;1183.32;999.90;;;;;;;;;;10416070;28;20075;-70
2023/10/08 11:56:41;;;;;;;1180.43;999.90;;;;;;;;;;10417109;28;20026;-71
2023/10/08 12:01:46;;;;;;;1193.28;999.90;;;;;;;;;;10417123;28;20265;-70
2023/10/08 12:06:52;;;;;;;1189.47;999.90;;;;;;;;;;10416665;28;20021;-69
2023/10/08 12:11:52;;;;;;;1194.68;999.90;;;;;;;;;;10414654;28;20424;-71
2023/10/08 12:16:52;;;;;;;1188.47;999.90;;;;;;;;;;10417080;28;20062;-72
2023/10/08 12:21:52;;;;;;;1190.90;999.90;;;;;;;;;;10415975;28;20038;-71
2023/10/08 12:26:53;;;;;;;1195.47;999.90;;;;;;;;;;10416027;28;20315;-71
2023/10/08 12:31:54;;;;;;;1140.20;999.90;;;;;;;;;;10415877;28;20060;-71
2023/10/08 12:36:54;;;;;;;1170.37;999.90;;;;;;;;;;10415132;28;20030;-71
2023/10/08 12:41:57;;;;;;;1164.30;999.90;;;;;;;;;;10415262;28;20287;-70
2023/10/08 12:46:59;;;;;;;1118.72;999.90;;;;;;;;;;10415448;28;20312;-70
2023/10/08 12:52:02;;;;;;;1148.25;999.90;;;;;;;;;;10415053;28;20017;-71
2023/10/08 12:57:08;;;;;;;1071.38;973.67;;;;;;;;;;10420669;28;20075;-70
2023/10/08 13:02:10;;;;;;;1137.13;999.90;;;;;;;;;;10420601;28;20207;-71
2023/10/08 13:07:12;;;;;;;1033.82;937.92;;;;;;;;;;10413327;28;20268;-71
2023/10/08 13:12:15;;;;;;;798.35;714.88;;;;;;;;;;10412389;28;20193;-70
2023/10/08 13:17:15;;;;;;;757.42;676.53;;;;;;;;;;10414219;28;20021;-70
2023/10/08 13:22:19;;;;;;;12.63;3.22;;;;;;;;;;10412113;28;20077;-70
2023/10/08 13:27:20;;;;;;;9.00;2.17;;;;;;;;;;10413458;28;20021;-70
2023/10/08 13:32:20;;;;;;;8.97;1.77;;;;;;;;;;10413976;28;20234;-70
2023/10/08 13:37:20;;;;;;;10.95;2.25;;;;;;;;;;10412687;28;20059;-70
2023/10/08 13:42:20;;;;;;;12.77;2.25;;;;;;;;;;10412321;28;20018;-69
2023/10/08 13:47:25;;;;;;;11.85;3.13;;;;;;;;;;10412225;28;20271;-70
2023/10/08 13:52:26;;;;;;;10.52;3.60;;;;;;;;;;10411066;28;20020;-71
2023/10/08 13:57:26;;;;;;;16.55;2.50;;;;;;;;;;10423758;28;20022;-71
2023/10/08 14:02:27;;;;;;;11.90;2.73;;;;;;;;;;10412660;28;20272;-71
2023/10/08 14:07:30;;;;;;;14.73;3.50;;;;;;;;;;10410917;28;20059;-71
2023/10/08 14:12:34;;;;;;;12.57;3.25;;;;;;;;;;10411823;28;20023;-70
2023/10/08 14:17:42;;;;;;;10.52;2.95;;;;;;;;;;10411613;28;20214;-70
2023/10/08 14:22:44;;;;;;;6.85;2.22;;;;;;;;;;10409125;28;20013;-71
2023/10/08 14:27:51;;;;;;;6.47;2.53;;;;;;;;;;10411465;28;20088;-69
2023/10/08 14:32:51;;;;;;;;;;;;;;;;;;10410797;28;20022;-69
2023/10/08 14:43:11;;;;;;;14.90;2.92;;;;;;;;;;10412562;28;20307;-69
2023/10/08 14:48:13;;;;;;;17.55;3.33;;;;;;;;;;10409231;28;20517;-70
2023/10/08 14:53:13;;;;;;;18.85;4.13;;;;;;;;;;10411396;28;20401;-72
2023/10/08 14:58:14;;;;;;;11.07;3.28;;;;;;;;;;10410810;28;20104;-70
2023/10/08 15:03:14;;;;;;;15.23;3.15;;;;;;;;;;10417469;28;20014;-70
2023/10/08 15:08:14;;;;;;;20.80;4.22;;;;;;;;;;10418930;28;20025;-70
2023/10/08 15:13:15;;;;;;;19.85;3.03;;;;;;;;;;10450378;28;20315;-70
2023/10/08 15:18:18;;;;;;;11.63;3.53;;;;;;;;;;10418199;28;20063;-70
2023/10/08 15:23:21;;;;;;;20.48;2.80;;;;;;;;;;10429174;28;20013;-69
2023/10/08 15:28:21;;;;;;;14.02;2.45;;;;;;;;;;10418021;28;20171;-69
2023/10/08 15:33:21;;;;;;;11.20;2.58;;;;;;;;;;10418050;28;20014;-69
2023/10/08 15:38:22;;;;;;;14.88;2.85;;;;;;;;;;10418112;28;20041;-70
2023/10/08 15:43:23;;;;;;;13.00;3.03;;;;;;;;;;10417181;28;20021;-69
2023/10/08 15:48:25;;;;;;;13.40;3.27;;;;;;;;;;10417189;28;20322;-69
2023/10/08 15:53:26;;;;;;;16.70;3.47;;;;;;;;;;10417557;28;20261;-69
2023/10/08 15:58:26;;;;;;;10.75;3.13;;;;;;;;;;10418427;28;20082;-69
2023/10/08 16:03:26;;;;;;;18.92;3.90;;;;;;;;;;10416540;28;20014;-70
2023/10/08 16:08:26;;;;;;;11.82;3.20;;;;;;;;;;10416861;28;20044;-70
2023/10/08 16:13:27;;;;;;;13.48;4.22;;;;;;;;;;10414704;28;20021;-70
2023/10/08 16:18:28;;;;;;;15.23;3.30;;;;;;;;;;10414680;28;20071;-69
2023/10/08 16:23:29;;;;;;;9.68;2.83;;;;;;;;;;10427004;28;20091;-72
2023/10/08 16:28:30;;;;;;;20.77;4.28;;;;;;;;;;10418546;28;20199;-71
2023/10/08 16:33:31;;;;;;;17.52;2.90;;;;;;;;;;10415127;28;20178;-72
2023/10/08 16:38:31;;;;;;;12.13;3.22;;;;;;;;;;10416116;28;20195;-71
2023/10/08 16:43:31;;;;;;;23.80;21.60;;;;;;;;;;10415296;28;20017;-72
2023/10/08 16:48:32;;;;;;;1084.38;983.20;;;;;;;;;;10414011;28;20071;-69
2023/10/08 16:53:32;;;;;;;1096.47;993.33;;;;;;;;;;10415358;28;20048;-71
2023/10/08 16:58:32;;;;;;;1072.05;970.45;;;;;;;;;;10414924;28;20021;-72
2023/10/08 17:03:33;;;;;;;1083.95;982.22;;;;;;;;;;10415364;28;20248;-71
2023/10/08 17:08:33;;;;;;;1053.47;954.72;;;;;;;;;;10413966;28;20203;-70
2023/10/08 17:13:34;;;;;;;1073.75;973.40;;;;;;;;;;10414221;28;20053;-70
2023/10/08 17:18:34;;;;;;;1077.47;977.17;;;;;;;;;;10412224;28;20045;-69
2023/10/08 17:23:35;;;;;;;1103.80;998.50;;;;;;;;;;10412821;28;20112;-70
2023/10/08 17:28:35;;;;;;;1062.65;964.35;;;;;;;;;;10412969;28;20040;-69
2023/10/08 17:33:36;;;;;;;1074.67;974.73;;;;;;;;;;10409940;28;20040;-70
2023/10/08 17:38:36;;;;;;;1086.60;985.70;;;;;;;;;;10409713;28;20692;-70
2023/10/08 17:43:36;;;;;;;1131.57;999.90;;;;;;;;;;10411360;28;20017;-70
2023/10/08 17:48:36;;;;;;;1122.82;999.90;;;;;;;;;;10412309;28;20033;-74
2023/10/08 17:53:37;;;;;;;1085.33;982.50;;;;;;;;;;10413223;28;20017;-73
2023/10/08 17:58:37;;;;;;;1109.50;999.90;;;;;;;;;;10411911;28;20284;-74
2023/10/08 18:03:38;;;;;;;1079.18;979.28;;;;;;;;;;10412583;28;20025;-72
2023/10/08 18:08:39;;;;;;;1060.18;961.67;;;;;;;;;;10410448;28;20029;-72
2023/10/08 18:13:42;;;;;;;1057.38;959.00;;;;;;;;;;10410886;28;20092;-71
2023/10/08 18:18:43;;;;;;;1063.28;964.72;;;;;;;;;;10410678;28;20314;-70
2023/10/08 18:23:45;;;;;;;1046.20;948.25;;;;;;;;;;10410110;28;20211;-70
2023/10/08 18:28:45;;;;;;;1085.75;982.83;;;;;;;;;;10421277;28;20064;-73
2023/10/08 18:33:47;;;;;;;1049.30;951.13;;;;;;;;;;10410055;28;20021;-69
2023/10/08 18:38:47;;;;;;;1031.72;935.00;;;;;;;;;;10409632;28;20033;-70
2023/10/08 18:43:48;;;;;;;1003.67;908.63;;;;;;;;;;10409984;28;20030;-70
2023/10/08 18:48:48;;;;;;;1045.20;948.17;;;;;;;;;;10409717;28;20259;-72
2023/10/08 18:53:50;;;;;;;1056.37;958.70;;;;;;;;;;10409974;28;20026;-69
2023/10/08 18:58:51;;;;;;;1090.10;990.05;;;;;;;;;;10408075;28;20470;-70
2023/10/08 19:03:53;;;;;;;1031.80;934.08;;;;;;;;;;10407217;28;20298;-72
2023/10/08 19:08:53;;;;;;;1039.25;941.95;;;;;;;;;;10405386;28;20202;-68
2023/10/08 19:13:53;;;;;;;1031.93;934.57;;;;;;;;;;10407407;28;20033;-69
2023/10/08 19:18:53;;;;;;;1075.00;976.08;;;;;;;;;;10409226;28;20299;-69
2023/10/08 19:23:54;;;;;;;1069.47;967.00;;;;;;;;;;10408070;28;20029;-69
2023/10/08 19:28:55;;;;;;;1041.95;945.10;;;;;;;;;;10410959;28;20021;-69
2023/10/08 19:33:55;;;;;;;986.22;892.58;;;;;;;;;;10410692;28;20025;-69
2023/10/08 19:38:56;;;;;;;1066.13;968.03;;;;;;;;;;10410031;28;20057;-69
2023/10/08 19:43:57;;;;;;;1019.83;924.63;;;;;;;;;;10409591;28;20203;-69
2023/10/08 19:48:57;;;;;;;1006.25;912.47;;;;;;;;;;10416567;28;20331;-71
2023/10/08 19:53:59;;;;;;;1017.33;922.60;;;;;;;;;;10417132;28;20021;-73
2023/10/08 19:58:59;;;;;;;985.38;891.70;;;;;;;;;;10416013;28;20361;-79
2023/10/08 20:03:59;;;;;;;985.30;891.87;;;;;;;;;;10416708;28;20028;-77
2023/10/08 20:09:01;;;;;;;1015.97;921.47;;;;;;;;;;10418419;28;20278;-76
2023/10/08 20:14:01;;;;;;;994.20;900.72;;;;;;;;;;10416039;28;20026;-73
2023/10/08 20:19:05;;;;;;;984.47;890.33;;;;;;;;;;10416639;28;20223;-70
2023/10/08 20:24:06;;;;;;;993.97;900.28;;;;;;;;;;10414975;28;20039;-74
2023/10/08 20:29:07;;;;;;;958.17;866.65;;;;;;;;;;10414237;28;20020;-72
2023/10/08 20:34:07;;;;;;;15.98;2.60;;;;;;;;;;10416609;28;20231;-74
2023/10/08 20:39:10;;;;;;;6.13;2.00;;;;;;;;;;10415186;28;20140;-73
2023/10/08 20:44:11;;;;;;;17.05;3.80;;;;;;;;;;10415463;28;20012;-72
2023/10/08 20:49:12;;;;;;;8.88;2.45;;;;;;;;;;10415469;28;20238;-69
2023/10/08 20:54:14;;;;;;;16.90;2.30;;;;;;;;;;10414430;28;21050;-72
2023/10/08 20:59:14;;;;;;;13.80;2.60;;;;;;;;;;10415447;28;20021;-73
2023/10/08 21:04:14;;;;;;;10.43;2.97;;;;;;;;;;10413281;28;20024;-71
2023/10/08 21:09:15;;;;;;;16.70;3.25;;;;;;;;;;10413891;28;20029;-74
2023/10/08 21:14:15;;;;;;;15.23;2.45;;;;;;;;;;10412334;28;20269;-76
2023/10/08 21:19:16;;;;;;;14.17;3.37;;;;;;;;;;10412818;28;20253;-67
2023/10/08 21:24:16;;;;;;;20.87;4.03;;;;;;;;;;10414580;28;20070;-66
2023/10/08 21:29:18;;;;;;;19.40;2.90;;;;;;;;;;10417737;28;20251;-68
2023/10/08 21:34:18;;;;;;;14.57;2.10;;;;;;;;;;10418322;28;20330;-68
2023/10/08 21:39:20;;;;;;;11.17;3.47;;;;;;;;;;10418216;28;20064;-67
2023/10/08 21:44:20;;;;;;;14.35;2.63;;;;;;;;;;10417599;28;20044;-67
2023/10/08 21:49:20;;;;;;;13.82;3.67;;;;;;;;;;10417358;28;20025;-67
2023/10/08 21:54:20;;;;;;;11.23;2.38;;;;;;;;;;10417034;28;20029;-67
2023/10/08 21:59:21;;;;;;;12.68;2.33;;;;;;;;;;10420850;28;20031;-67
2023/10/08 22:04:22;;;;;;;9.05;2.97;;;;;;;;;;10416165;28;20239;-67
2023/10/08 22:09:28;;;;;;;12.57;2.28;;;;;;;;;;10416021;28;20088;-66
2023/10/08 22:14:32;;;;;;;8.52;3.17;;;;;;;;;;10419154;28;20050;-66
2023/10/08 22:19:42;;;;;;;10.90;2.85;;;;;;;;;;10416395;28;20113;-72
2023/10/08 22:24:44;;;;;;;9.13;2.58;;;;;;;;;;10404810;28;20041;-71
2023/10/08 22:29:47;;;;;;;13.73;2.58;;;;;;;;;;10408329;28;20021;-69
2023/10/08 22:34:55;;;;;;;13.50;2.97;;;;;;;;;;10410669;28;20032;-70
2023/10/08 22:39:55;;;;;;;11.57;2.85;;;;;;;;;;10408545;28;20046;-72
2023/10/08 22:44:56;;;;;;;14.38;3.42;;;;;;;;;;10409888;28;20025;-72
2023/10/08 22:49:57;;;;;;;18.67;3.65;;;;;;;;;;10410672;28;20060;-76
2023/10/08 22:54:58;;;;;;;8.60;2.45;;;;;;;;;;10423462;28;20335;-76
2023/10/08 22:59:58;;;;;;;12.48;3.83;;;;;;;;;;10410452;28;20362;-76
2023/10/08 23:05:01;;;;;;;17.23;4.45;;;;;;;;;;10409910;28;20083;-76
2023/10/08 23:10:01;;;;;;;19.58;6.95;;;;;;;;;;10408640;28;20029;-76
2023/10/08 23:15:01;;;;;;;49.00;45.08;;;;;;;;;;10409777;28;20037;-69
2023/10/08 23:20:06;;;;;;;250.37;234.70;;;;;;;;;;10410264;28;20032;-69
2023/10/08 23:25:07;;;;;;;415.25;386.92;;;;;;;;;;10417081;28;20006;-68
2023/10/08 23:30:09;;;;;;;610.20;567.00;;;;;;;;;;10418170;28;20013;-65
2023/10/08 23:35:16;;;;;;;214.57;200.95;;;;;;;;;;10420677;28;20335;-65
2023/10/08 23:40:30;;;;;;;121.20;113.53;;;;;;;;;;10420513;28;20048;-65
2023/10/08 23:45:31;;;;;;;52.08;47.72;;;;;;;;;;10422547;28;20234;-65
2023/10/08 23:50:32;;;;;;;172.20;161.63;;;;;;;;;;10419435;28;20088;-65
2023/10/08 23:55:32;;;;;;;394.52;368.88;;;;;;;;;;10418818;28;20040;-65
